Terminal Aerodrome Forecast
Issued by NWS Chicago, IL

Home | Current Version | Previous Version | Text Only | Print | Product List | Glossary Off
Versions: 1 2 3 4 5 6 7 8 9 10 11 12 13 14 15 16 17 18 19 20 21 22 23 24 25 26 27 28 29 30 31 32 33 34 35

000
FTUS43 KLOT 010500
TAFRFD
TAF
KRFD 010533Z 0106/0206 15004KT P6SM FEW040 BKN100
     FM010900 VRB03KT P6SM OVC020
     FM011700 25008KT P6SM BKN030
     FM020400 28009KT P6SM SKC=

USA.gov is the U.S. government's official web portal to all federal, state and local government web resources and services.